Detall de PIREP

Printer-friendly versionPDF version

[2017/08/04 15:21:00]
Flight IATA:CT2114
Pilot Number:041
Company ICAO:CAT
Aircraft Type:B738/F
PAX:129
Departing Airport: LEVC
Destination Airport: LEXJ
Alternate Airport:LEMD
Online: VATSIM
Route:CENTA A33 PRADO UN733 CJN DCT RBO UN867 BLV

Flight Level:FL330
No Slew and time accel
No pause
Crash detect
Detect pilot in Cockpit between each 30 and 45 minutes
15:21 Zero fuel Weight: 135599 Lbs, Fuel Weight: 13474 Lbs
15:21 VATSIM:LEVC 041500Z 14010KT 9999 FEW030 34/18 Q1013 NOSIG
15:21 VATSIM:LEXJ 041500Z 07005KT 030V120 9999 FEW040 27/21 Q1017
15:21 VOICE CATALONIAN
15:22 Parking Brakes off
15:29 Take-off
15:29 Take off Weight: 148069 Lbs
15:29 Wind: 073º @ 009 Knots Heading: 116º
15:29 POS N39º 29´ 08´´ W000º 28´ 18´´
15:29 Gear Up: 165 Knots
15:29 Flaps:3 at 165 Knots
15:29 Flaps:2 at 168 Knots
15:30 Flaps:1 at 196 Knots
15:30 Flaps:0 at 204 Knots
15:44 Wind:301º@029 Knots Heading: 299º Ground Speed: 436 Knots Altitude 31049 ft
15:45 TOC
15:45 Fuel Weight: 8974 Lb
15:59 Wind:263º@040 Knots Heading: 004º Ground Speed: 466 Knots Altitude 33001 ft
16:11 TOD
16:11 Fuel Weight: 6478 Lb
16:14 Wind:296º@049 Knots Heading: 351º Ground Speed: 380 Knots Altitude 26702 ft
16:25 Flaps:1 at 252 Knots
16:25 Flaps:2 at 245 Knots
16:26 Flaps:3 at 233 Knots
16:29 Wind:196º@006 Knots Heading: 267º Ground Speed: 214 Knots Altitude 4232 ft
16:29 Flaps:4 at 212 Knots
16:35 Flaps:5 at 201 Knots
16:35 Flaps:6 at 187 Knots
16:37 Gear Down: 179 Knots
16:37 Flaps:7 at 166 Knots
16:37 Flaps:8 at 159 Knots
16:38 TouchDown:Rate -99 ft/min Speed: 138 Knots
16:38 VATSIM:LEXJ 041600Z 06006KT 020V100 9999 FEW049 26/20 Q1018
16:39 Land
16:39 Wind:298º@011 Knots
16:39 Heading: 110º
16:39 Flight Duration: 01:10
16:39 Landing Weight: 140514 Lbs
16:39 POS N43º 25´ 31´´ W003º 48´ 49´´
16:42 Parking brakes on
16:42 Block to Block Duration: 01:20
16:42 Final Fuel: 4541 Lbls
16:42 Spent Fuel: 8932 Lbls
16:42 Flight Length: 411 NM
16:42 TOD Land Length: 124 NM

Exportar CSV

Powered by Drupal - Modified by Danger4k